Time,TemperatureF,DewpointF,PressureIn,WindDirection,WindDirectionDegrees,WindSpeedMPH,WindSpeedGustMPH,Humidity,HourlyPrecipIn,Conditions,Clouds,dailyrainin,SoftwareType,DateUTC
2013-05-23 00:05:00,46.0,45.0,29.91,WSW,252,0.0,1.0,97,0.00,,,0.00,weatherlink.com 1.10,2013-05-23 07:05:00,
2013-05-23 00:20:00,45.9,45.0,29.91,West,260,0.0,1.0,97,0.00,,,0.00,weatherlink.com 1.10,2013-05-23 07:20:00,
2013-05-23 00:35:00,45.6,45.0,29.91,West,259,1.0,1.0,97,0.00,,,0.00,weatherlink.com 1.10,2013-05-23 07:35:00,
2013-05-23 00:50:00,45.3,45.0,29.91,West,259,0.0,1.0,97,0.00,,,0.00,weatherlink.com 1.10,2013-05-23 07:50:00,
2013-05-23 01:05:00,45.5,45.0,29.91,SW,218,0.0,1.0,98,0.00,,,0.00,weatherlink.com 1.10,2013-05-23 08:05:00,
2013-05-23 01:20:00,45.7,45.0,29.92,East,88,1.0,1.0,97,0.00,,,0.00,weatherlink.com 1.10,2013-05-23 08:20:00,
2013-05-23 01:35:00,45.5,45.0,29.93,East,88,0.0,1.0,97,0.00,,,0.00,weatherlink.com 1.10,2013-05-23 08:35:00,
2013-05-23 01:50:00,45.4,45.0,29.93,East,91,0.0,1.0,97,0.00,,,0.00,weatherlink.com 1.10,2013-05-23 08:50:00,
2013-05-23 02:05:00,45.3,45.0,29.93,SW,224,1.0,1.0,97,0.00,,,0.00,weatherlink.com 1.10,2013-05-23 09:05:00,
2013-05-23 02:20:00,45.3,45.0,29.93,SW,236,0.0,1.0,98,0.00,,,0.00,weatherlink.com 1.10,2013-05-23 09:20:00,
2013-05-23 02:35:00,45.4,45.0,29.93,SE,132,1.0,2.0,98,0.00,,,0.00,weatherlink.com 1.10,2013-05-23 09:35:00,
2013-05-23 02:50:00,45.9,45.0,29.93,WSW,239,0.0,3.0,96,0.00,,,0.00,weatherlink.com 1.10,2013-05-23 09:50:00,
2013-05-23 03:05:00,45.4,45.0,29.93,WSW,242,0.0,1.0,97,0.00,,,0.00,weatherlink.com 1.10,2013-05-23 10:05:00,
2013-05-23 03:20:00,45.9,45.0,29.93,SSE,162,0.0,2.0,96,0.00,,,0.00,weatherlink.com 1.10,2013-05-23 10:20:00,
2013-05-23 03:35:00,46.1,45.0,29.93,SE,141,0.0,1.0,95,0.00,,,0.00,weatherlink.com 1.10,2013-05-23 10:35:00,
2013-05-23 03:50:00,46.3,45.0,29.93,SSE,153,2.0,3.0,94,0.00,,,0.00,weatherlink.com 1.10,2013-05-23 10:50:00,
2013-05-23 04:05:00,45.8,44.0,29.94,SSE,149,1.0,2.0,94,0.00,,,0.00,weatherlink.com 1.10,2013-05-23 11:05:00,
2013-05-23 04:20:00,45.5,45.0,29.94,West,267,1.0,2.0,96,0.00,,,0.00,weatherlink.com 1.10,2013-05-23 11:20:00,
2013-05-23 04:35:00,45.3,44.0,29.94,West,262,0.0,1.0,96,0.01,,,0.01,weatherlink.com 1.10,2013-05-23 11:35:00,
2013-05-23 04:50:00,45.3,44.0,29.94,East,98,2.0,2.0,96,0.01,,,0.01,weatherlink.com 1.10,2013-05-23 11:50:00,
2013-05-23 05:05:00,45.5,44.0,29.94,ESE,115,0.0,3.0,94,0.02,,,0.02,weatherlink.com 1.10,2013-05-23 12:05:00,
2013-05-23 05:20:00,45.5,44.0,29.94,East,86,0.0,2.0,94,0.02,,,0.02,weatherlink.com 1.10,2013-05-23 12:20:00,
2013-05-23 05:35:00,45.4,44.0,29.94,ESE,122,0.0,2.0,94,0.01,,,0.02,weatherlink.com 1.10,2013-05-23 12:35:00,
2013-05-23 05:50:00,45.4,44.0,29.94,East,99,0.0,2.0,94,0.01,,,0.02,weatherlink.com 1.10,2013-05-23 12:50:00,
2013-05-23 06:05:00,45.7,44.0,29.95,ESE,122,3.0,4.0,94,0.00,,,0.02,weatherlink.com 1.10,2013-05-23 13:05:00,
2013-05-23 06:20:00,45.6,44.0,29.95,SE,141,2.0,4.0,93,0.00,,,0.02,weatherlink.com 1.10,2013-05-23 13:20:00,
2013-05-23 06:35:00,45.6,44.0,29.95,SE,146,2.0,2.0,93,0.00,,,0.02,weatherlink.com 1.10,2013-05-23 13:35:00,
2013-05-23 06:50:00,45.7,44.0,29.95,East,79,1.0,2.0,93,0.00,,,0.02,weatherlink.com 1.10,2013-05-23 13:50:00,
2013-05-23 07:05:00,45.9,44.0,29.95,East,84,0.0,1.0,93,0.00,,,0.02,weatherlink.com 1.10,2013-05-23 14:05:00,
2013-05-23 07:20:00,46.2,44.0,29.96,East,95,0.0,1.0,92,0.00,,,0.02,weatherlink.com 1.10,2013-05-23 14:20:00,
2013-05-23 07:35:00,46.6,44.0,29.96,ESE,113,1.0,3.0,92,0.00,,,0.02,weatherlink.com 1.10,2013-05-23 14:35:00,
2013-05-23 07:50:00,48.3,45.0,29.96,South,170,2.0,4.0,88,0.00,,,0.02,weatherlink.com 1.10,2013-05-23 14:50:00,
2013-05-23 08:05:00,48.4,44.0,29.96,SE,130,4.0,9.0,86,0.00,,,0.02,weatherlink.com 1.10,2013-05-23 15:05:00,
2013-05-23 08:21:00,48.0,45.0,29.97,SE,141,7.0,10.0,88,0.00,,,0.02,weatherlink.com 1.10,2013-05-23 15:21:00,
2013-05-23 08:36:00,48.4,44.0,29.97,SSE,160,4.0,10.0,85,0.00,,,0.02,weatherlink.com 1.10,2013-05-23 15:36:00,
2013-05-23 08:51:00,48.2,44.0,29.98,SSE,160,5.0,10.0,85,0.00,,,0.02,weatherlink.com 1.10,2013-05-23 15:51:00,
2013-05-23 09:06:00,49.5,45.0,29.97,SSE,148,3.0,6.0,85,0.00,,,0.02,weatherlink.com 1.10,2013-05-23 16:06:00,
2013-05-23 09:21:00,49.9,45.0,29.97,SSE,153,4.0,8.0,83,0.00,,,0.02,weatherlink.com 1.10,2013-05-23 16:21:00,
2013-05-23 09:36:00,49.9,45.0,29.97,SSE,165,6.0,10.0,82,0.00,,,0.02,weatherlink.com 1.10,2013-05-23 16:36:00,
2013-05-23 09:51:00,50.4,44.0,29.97,SSE,165,7.0,14.0,78,0.00,,,0.02,weatherlink.com 1.10,2013-05-23 16:51:00,
2013-05-23 10:06:00,50.5,45.0,29.97,SE,142,4.0,11.0,81,0.00,,,0.02,weatherlink.com 1.10,2013-05-23 17:06:00,
2013-05-23 10:21:00,50.7,45.0,29.97,SE,129,4.0,9.0,80,0.00,,,0.02,weatherlink.com 1.10,2013-05-23 17:21:00,
2013-05-23 10:36:00,51.0,45.0,29.96,SSE,153,5.0,8.0,80,0.00,,,0.02,weatherlink.com 1.10,2013-05-23 17:36:00,
2013-05-23 10:51:00,51.3,45.0,29.96,South,179,5.0,9.0,79,0.00,,,0.02,weatherlink.com 1.10,2013-05-23 17:51:00,
2013-05-23 11:06:00,51.9,45.0,29.96,SSE,158,7.0,10.0,77,0.00,,,0.02,weatherlink.com 1.10,2013-05-23 18:06:00,
2013-05-23 11:21:00,52.0,45.0,29.96,SSE,150,6.0,11.0,78,0.00,,,0.02,weatherlink.com 1.10,2013-05-23 18:21:00,
2013-05-23 11:36:00,52.6,46.0,29.95,SSE,152,3.0,11.0,79,0.00,,,0.02,weatherlink.com 1.10,2013-05-23 18:36:00,
2013-05-23 11:51:00,53.0,45.0,29.95,SSE,155,5.0,19.0,73,0.00,,,0.02,weatherlink.com 1.10,2013-05-23 18:51:00,
2013-05-23 12:06:00,53.5,46.0,29.96,SSW,193,2.0,16.0,75,0.00,,,0.02,weatherlink.com 1.10,2013-05-23 19:06:00,
2013-05-23 12:21:00,54.2,46.0,29.95,South,181,7.0,12.0,75,0.00,,,0.02,weatherlink.com 1.10,2013-05-23 19:21:00,
2013-05-23 12:37:00,53.7,45.0,29.95,South,184,6.0,13.0,72,0.00,,,0.02,weatherlink.com 1.10,2013-05-23 19:37:00,
2013-05-23 12:52:00,53.9,45.0,29.95,SSE,158,3.0,16.0,72,0.00,,,0.02,weatherlink.com 1.10,2013-05-23 19:52:00,
2013-05-23 13:07:00,54.5,45.0,29.95,SSE,160,11.0,18.0,70,0.00,,,0.02,weatherlink.com 1.10,2013-05-23 20:07:00,
2013-05-23 13:22:00,54.5,44.0,29.95,South,181,5.0,20.0,68,0.00,,,0.02,weatherlink.com 1.10,2013-05-23 20:22:00,
2013-05-23 13:37:00,53.6,46.0,29.96,SSE,152,10.0,16.0,74,0.00,,,0.02,weatherlink.com 1.10,2013-05-23 20:37:00,
2013-05-23 13:52:00,51.5,45.0,29.96,SE,139,6.0,19.0,79,0.00,,,0.02,weatherlink.com 1.10,2013-05-23 20:52:00,
2013-05-23 14:07:00,52.1,44.0,29.96,South,170,12.0,19.0,75,0.00,,,0.02,weatherlink.com 1.10,2013-05-23 21:07:00,
2013-05-23 14:22:00,52.6,45.0,29.97,South,185,6.0,13.0,76,0.00,,,0.02,weatherlink.com 1.10,2013-05-23 21:22:00,
2013-05-23 14:37:00,52.0,43.0,29.98,South,174,13.0,21.0,71,0.00,,,0.02,weatherlink.com 1.10,2013-05-23 21:37:00,
2013-05-23 14:52:00,52.0,43.0,29.98,South,172,4.0,22.0,71,0.00,,,0.02,weatherlink.com 1.10,2013-05-23 21:52:00,
2013-05-23 15:07:00,52.0,43.0,29.98,WSW,252,4.0,16.0,72,0.00,,,0.02,weatherlink.com 1.10,2013-05-23 22:07:00,
2013-05-23 15:22:00,51.7,44.0,29.98,South,187,14.0,15.0,74,0.00,,,0.02,weatherlink.com 1.10,2013-05-23 22:22:00,
2013-05-23 15:37:00,51.4,44.0,29.98,South,183,11.0,12.0,76,0.00,,,0.02,weatherlink.com 1.10,2013-05-23 22:37:00,
2013-05-23 15:52:00,50.8,44.0,29.98,SSE,148,6.0,14.0,78,0.00,,,0.02,weatherlink.com 1.10,2013-05-23 22:52:00,
2013-05-23 16:07:00,50.6,44.0,29.98,SSW,195,9.0,14.0,79,0.00,,,0.02,weatherlink.com 1.10,2013-05-23 23:07:00,
2013-05-23 16:22:00,50.6,45.0,29.98,SE,143,2.0,17.0,80,0.00,,,0.02,weatherlink.com 1.10,2013-05-23 23:22:00,
2013-05-23 16:37:00,50.2,44.0,29.98,SSE,149,13.0,17.0,78,0.00,,,0.02,weatherlink.com 1.10,2013-05-23 23:37:00,
2013-05-23 16:52:00,50.1,45.0,29.98,SSW,203,2.0,13.0,81,0.00,,,0.02,weatherlink.com 1.10,2013-05-23 23:52:00,
2013-05-23 17:07:00,50.1,44.0,29.98,SE,131,2.0,9.0,80,0.00,,,0.02,weatherlink.com 1.10,2013-05-24 00:07:00,
2013-05-23 17:22:00,50.3,45.0,29.98,SSE,158,8.0,10.0,83,0.00,,,0.02,weatherlink.com 1.10,2013-05-24 00:22:00,
2013-05-23 17:37:00,50.3,46.0,29.98,SE,145,5.0,10.0,85,0.00,,,0.02,weatherlink.com 1.10,2013-05-24 00:37:00,
2013-05-23 17:52:00,50.4,46.0,29.97,South,185,6.0,10.0,85,0.00,,,0.02,weatherlink.com 1.10,2013-05-24 00:52:00,
2013-05-23 18:07:00,50.3,46.0,29.97,SSE,150,6.0,8.0,86,0.00,,,0.02,weatherlink.com 1.10,2013-05-24 01:07:00,
2013-05-23 18:22:00,50.5,46.0,29.97,SSE,155,4.0,7.0,85,0.00,,,0.02,weatherlink.com 1.10,2013-05-24 01:22:00,
2013-05-23 18:37:00,50.7,46.0,29.97,South,170,4.0,5.0,85,0.00,,,0.02,weatherlink.com 1.10,2013-05-24 01:37:00,
2013-05-23 18:52:00,50.6,46.0,29.96,South,185,2.0,8.0,85,0.00,,,0.02,weatherlink.com 1.10,2013-05-24 01:52:00,
2013-05-23 19:07:00,50.5,47.0,29.96,SSE,166,0.0,5.0,86,0.00,,,0.02,weatherlink.com 1.10,2013-05-24 02:07:00,
2013-05-23 19:22:00,50.4,46.0,29.97,SSE,151,0.0,6.0,86,0.00,,,0.02,weatherlink.com 1.10,2013-05-24 02:22:00,
2013-05-23 19:37:00,50.3,47.0,29.96,SW,215,0.0,2.0,87,0.00,,,0.02,weatherlink.com 1.10,2013-05-24 02:37:00,
2013-05-23 19:52:00,50.1,47.0,29.96,South,170,0.0,2.0,88,0.00,,,0.02,weatherlink.com 1.10,2013-05-24 02:52:00,
2013-05-23 20:07:00,49.9,47.0,29.96,South,170,0.0,0.0,89,0.00,,,0.02,weatherlink.com 1.10,2013-05-24 03:07:00,
2013-05-23 20:22:00,49.6,47.0,29.96,South,170,0.0,0.0,90,0.00,,,0.02,weatherlink.com 1.10,2013-05-24 03:22:00,
2013-05-23 20:37:00,49.3,47.0,29.96,South,176,0.0,0.0,92,0.00,,,0.02,weatherlink.com 1.10,2013-05-24 03:37:00,
2013-05-23 20:52:00,49.0,47.0,29.96,South,176,0.0,0.0,93,0.00,,,0.02,weatherlink.com 1.10,2013-05-24 03:52:00,
2013-05-23 21:07:00,48.4,47.0,29.96,WSW,253,0.0,1.0,94,0.00,,,0.02,weatherlink.com 1.10,2013-05-24 04:07:00,
2013-05-23 21:22:00,48.1,47.0,29.96,WSW,252,0.0,0.0,95,0.00,,,0.02,weatherlink.com 1.10,2013-05-24 04:22:00,
2013-05-23 21:37:00,47.7,46.0,29.97,WSW,252,0.0,1.0,95,0.00,,,0.02,weatherlink.com 1.10,2013-05-24 04:37:00,
2013-05-23 21:52:00,47.5,46.0,29.97,WSW,252,0.0,0.0,95,0.00,,,0.02,weatherlink.com 1.10,2013-05-24 04:52:00,
2013-05-23 22:07:00,46.8,46.0,29.97,WSW,253,1.0,1.0,95,0.00,,,0.02,weatherlink.com 1.10,2013-05-24 05:07:00,
2013-05-23 22:22:00,46.6,46.0,29.98,WSW,253,0.0,0.0,96,0.00,,,0.02,weatherlink.com 1.10,2013-05-24 05:22:00,
2013-05-23 22:37:00,46.4,45.0,29.98,WSW,253,0.0,1.0,96,0.00,,,0.02,weatherlink.com 1.10,2013-05-24 05:37:00,
2013-05-23 22:52:00,46.3,45.0,29.98,WSW,253,0.0,1.0,96,0.00,,,0.02,weatherlink.com 1.10,2013-05-24 05:52:00,
2013-05-23 23:07:00,46.3,45.0,29.97,WSW,253,1.0,1.0,96,0.00,,,0.02,weatherlink.com 1.10,2013-05-24 06:07:00,
2013-05-23 23:22:00,45.8,45.0,29.97,West,267,1.0,2.0,96,0.00,,,0.02,weatherlink.com 1.10,2013-05-24 06:22:00,
2013-05-23 23:37:00,45.7,45.0,29.97,West,262,0.0,1.0,97,0.00,,,0.02,weatherlink.com 1.10,2013-05-24 06:37:00,
2013-05-23 23:52:00,45.8,45.0,29.96,West,280,1.0,2.0,97,0.00,,,0.02,weatherlink.com 1.10,2013-05-24 06:52:00,